createdAt,value
2022-08-08T00:02:04.260Z,50.14
2022-08-08T00:05:12.865Z,50.27
2022-08-08T00:08:24.795Z,50.23
2022-08-08T00:12:07.392Z,50.16
2022-08-08T00:15:24.405Z,50.14
2022-08-08T00:18:57.678Z,50.33
2022-08-08T00:22:10.672Z,50.37
2022-08-08T00:25:22.775Z,50.43
2022-08-08T00:28:35.285Z,50.50
2022-08-08T00:32:15.576Z,50.47
2022-08-08T00:35:23.116Z,50.65
2022-08-08T00:38:54.459Z,50.75
2022-08-08T00:42:34.672Z,50.85
2022-08-08T00:46:16.411Z,51.10
2022-08-08T00:49:58.376Z,51.15
2022-08-08T00:53:29.928Z,51.21
2022-08-08T00:57:12.793Z,51.33
2022-08-08T01:00:27.992Z,51.40
2022-08-08T01:04:08.869Z,51.66
2022-08-08T01:07:55.978Z,51.76
2022-08-08T01:11:29.809Z,51.78
2022-08-08T01:15:01.614Z,51.96
2022-08-08T01:18:53.259Z,52.15
2022-08-08T01:22:10.102Z,52.08
2022-08-08T01:25:46.252Z,51.99
2022-08-08T01:28:59.064Z,51.87
2022-08-08T01:32:54.344Z,51.89
2022-08-08T01:36:06.412Z,51.93
2022-08-08T01:39:23.951Z,52.00
2022-08-08T01:42:54.928Z,52.08
2022-08-08T01:46:27.198Z,51.97
2022-08-08T01:49:37.427Z,52.23
2022-08-08T01:54:19.276Z,52.31
2022-08-08T01:56:46.960Z,52.41
2022-08-08T02:00:02.559Z,52.58
2022-08-08T02:03:49.265Z,52.54
2022-08-08T02:06:57.367Z,52.62
2022-08-08T02:10:44.690Z,52.69
2022-08-08T02:13:57.786Z,52.82
2022-08-08T02:17:36.568Z,52.72
2022-08-08T02:21:18.234Z,52.87
2022-08-08T02:24:30.577Z,52.85
2022-08-08T02:27:46.212Z,52.78
2022-08-08T02:31:55.810Z,52.88
2022-08-08T02:35:08.254Z,52.81
2022-08-08T02:38:55.045Z,52.85
2022-08-08T02:42:41.909Z,53.01
2022-08-08T02:45:57.007Z,53.07
2022-08-08T02:49:50.713Z,53.24
2022-08-08T02:53:10.133Z,53.30
2022-08-08T02:56:34.002Z,53.22
2022-08-08T03:00:26.791Z,53.21
2022-08-08T03:05:05.048Z,53.34
2022-08-08T03:08:15.117Z,53.61
2022-08-08T03:12:02.548Z,53.78
2022-08-08T03:16:00.052Z,53.76
2022-08-08T03:18:54.823Z,53.68
2022-08-08T03:21:59.843Z,53.61
2022-08-08T03:25:14.803Z,53.53
2022-08-08T03:28:56.311Z,53.55
2022-08-08T03:32:19.085Z,53.81
2022-08-08T03:35:24.352Z,53.96
2022-08-08T03:38:57.739Z,54.10
2022-08-08T03:42:11.910Z,54.10
2022-08-08T03:46:05.321Z,54.19
2022-08-08T03:49:30.063Z,54.32
2022-08-08T03:52:21.719Z,54.42
2022-08-08T03:55:57.765Z,54.36
2022-08-08T03:58:53.245Z,54.25
2022-08-08T04:02:20.653Z,54.26
2022-08-08T04:05:28.488Z,54.27
2022-08-08T04:08:36.840Z,54.36
2022-08-08T04:12:01.167Z,54.22
2022-08-08T04:15:13.346Z,54.29
2022-08-08T04:18:18.545Z,54.29
2022-08-08T04:21:23.386Z,54.22
2022-08-08T04:24:30.959Z,54.20
2022-08-08T04:28:02.418Z,54.20
2022-08-08T04:31:06.147Z,54.16
2022-08-08T04:34:12.179Z,54.38
2022-08-08T04:37:15.318Z,54.45
2022-08-08T04:40:19.291Z,54.29
2022-08-08T04:43:32.425Z,54.30
2022-08-08T04:46:52.631Z,54.14
2022-08-08T04:49:58.977Z,54.17
2022-08-08T04:53:52.200Z,53.93
2022-08-08T04:56:32.212Z,54.10
2022-08-08T04:59:42.128Z,53.97
2022-08-08T05:02:46.158Z,53.87
2022-08-08T05:05:53.438Z,53.86
2022-08-08T05:09:02.786Z,54.07
2022-08-08T05:12:10.377Z,54.26
2022-08-08T05:15:24.636Z,54.40
2022-08-08T05:18:36.824Z,54.49
2022-08-08T05:21:59.496Z,54.51
2022-08-08T05:25:04.069Z,54.66
2022-08-08T05:28:07.709Z,54.92
2022-08-08T05:32:02.414Z,54.67
2022-08-08T05:34:43.675Z,54.49
2022-08-08T05:37:54.611Z,54.74
2022-08-08T05:41:14.198Z,54.54
2022-08-08T05:44:30.890Z,54.68
2022-08-08T05:47:52.930Z,54.72
2022-08-08T05:51:14.578Z,54.75
2022-08-08T05:54:27.102Z,54.92
2022-08-08T05:58:04.633Z,54.87
2022-08-08T06:01:11.779Z,54.75
2022-08-08T06:04:35.114Z,54.51
2022-08-08T06:07:43.995Z,54.17
2022-08-08T06:10:49.935Z,53.98
2022-08-08T06:13:55.249Z,53.95
2022-08-08T06:17:03.632Z,54.08
2022-08-08T06:20:16.274Z,53.61
2022-08-08T06:23:23.459Z,53.48
2022-08-08T06:26:52.635Z,53.68
2022-08-08T06:30:19.738Z,53.19
2022-08-08T06:34:26.038Z,52.92
2022-08-08T06:37:25.160Z,53.00
2022-08-08T06:40:33.358Z,52.79
2022-08-08T06:43:57.129Z,52.55
2022-08-08T06:47:03.967Z,52.30
2022-08-08T06:50:12.806Z,52.19
2022-08-08T06:53:22.765Z,52.00
2022-08-08T06:56:31.696Z,51.65
2022-08-08T07:00:10.741Z,51.32
2022-08-08T07:03:04.859Z,51.38
2022-08-08T07:06:10.809Z,51.10
2022-08-08T07:09:21.106Z,50.81
2022-08-08T07:12:39.128Z,50.38
2022-08-08T07:16:05.874Z,50.33
2022-08-08T07:19:46.395Z,49.89
2022-08-08T07:24:01.687Z,49.72
2022-08-08T07:27:05.597Z,49.71
2022-08-08T07:30:13.979Z,49.87
2022-08-08T07:33:25.247Z,50.06
2022-08-08T07:36:31.163Z,49.64
2022-08-08T07:39:45.426Z,49.76
2022-08-08T07:42:53.120Z,49.36
2022-08-08T07:46:17.854Z,49.24
2022-08-08T07:49:19.534Z,48.55
2022-08-08T07:52:26.933Z,48.47
2022-08-08T07:55:36.401Z,48.12
2022-08-08T07:58:43.990Z,47.93
2022-08-08T08:02:32.805Z,46.99
2022-08-08T08:05:22.507Z,47.43
2022-08-08T08:08:51.989Z,47.87
2022-08-08T08:11:56.730Z,47.87
2022-08-08T08:15:15.276Z,47.60
2022-08-08T08:18:32.329Z,47.23
2022-08-08T08:21:58.472Z,47.05
2022-08-08T08:25:13.592Z,46.46
2022-08-08T08:28:24.388Z,45.98
2022-08-08T08:31:41.602Z,45.04
2022-08-08T08:34:49.278Z,44.36
2022-08-08T08:38:14.685Z,44.41
2022-08-08T08:41:22.426Z,44.26
2022-08-08T08:44:30.581Z,44.58
2022-08-08T08:47:44.641Z,44.19
2022-08-08T08:50:54.835Z,44.21
2022-08-08T08:54:01.866Z,44.24
2022-08-08T08:57:17.263Z,43.76
2022-08-08T09:00:23.317Z,43.77
2022-08-08T09:03:45.513Z,43.89
2022-08-08T09:06:53.659Z,43.56
2022-08-08T09:10:00.620Z,43.15
2022-08-08T09:13:17.849Z,43.22
2022-08-08T09:16:32.778Z,42.89
2022-08-08T09:21:57.184Z,42.84
2022-08-08T09:23:01.514Z,42.97
2022-08-08T09:26:32.502Z,42.95
2022-08-08T09:30:02.805Z,42.87
2022-08-08T09:33:54.505Z,42.45
2022-08-08T09:36:37.832Z,42.15
2022-08-08T09:40:10.816Z,41.57
2022-08-08T09:44:04.802Z,41.76
2022-08-08T09:46:57.731Z,42.12
2022-08-08T09:50:28.039Z,41.42
2022-08-08T09:54:01.334Z,41.04
2022-08-08T09:57:17.061Z,41.30
2022-08-08T10:00:50.028Z,41.19
2022-08-08T10:03:55.835Z,40.85
2022-08-08T10:07:00.166Z,40.15
2022-08-08T10:10:06.983Z,39.88
2022-08-08T10:13:19.451Z,39.52
2022-08-08T10:16:40.920Z,39.51
2022-08-08T10:19:46.193Z,39.35
2022-08-08T10:23:04.626Z,39.54
2022-08-08T10:26:30.937Z,39.14
2022-08-08T10:30:01.023Z,38.92
2022-08-08T10:33:09.900Z,38.16
2022-08-08T10:36:22.309Z,38.52
2022-08-08T10:39:31.688Z,38.89
2022-08-08T10:43:00.838Z,38.95
2022-08-08T10:46:06.615Z,38.40
2022-08-08T10:50:01.603Z,38.77
2022-08-08T10:53:07.830Z,38.44
2022-08-08T10:56:27.355Z,38.75
2022-08-08T10:59:39.332Z,38.74
2022-08-08T11:02:44.629Z,38.19
2022-08-08T11:06:00.392Z,37.51
2022-08-08T11:09:19.235Z,37.46
2022-08-08T11:12:25.087Z,37.60
2022-08-08T11:15:31.879Z,37.30
2022-08-08T11:18:39.971Z,37.11
2022-08-08T11:21:55.642Z,37.04
2022-08-08T11:25:14.255Z,37.33
2022-08-08T11:28:25.076Z,37.67
2022-08-08T11:31:46.758Z,37.67
2022-08-08T11:35:23.114Z,37.01
2022-08-08T11:38:38.396Z,37.46
2022-08-08T11:41:48.025Z,37.48
2022-08-08T11:44:55.318Z,36.97
2022-08-08T11:48:05.012Z,37.17
2022-08-08T11:51:29.892Z,37.24
2022-08-08T11:54:45.030Z,36.99
2022-08-08T11:57:51.631Z,37.02
2022-08-08T12:00:58.418Z,36.78
2022-08-08T12:04:04.905Z,36.33
2022-08-08T12:07:16.767Z,37.02
2022-08-08T12:10:23.263Z,36.77
2022-08-08T12:13:38.419Z,37.08
2022-08-08T12:16:53.292Z,37.73
2022-08-08T12:19:57.409Z,37.46
2022-08-08T12:23:00.835Z,37.22
2022-08-08T12:26:16.887Z,37.89
2022-08-08T12:29:40.097Z,37.38
2022-08-08T12:32:48.124Z,36.93
2022-08-08T12:35:53.227Z,36.87
2022-08-08T12:38:56.965Z,37.01
2022-08-08T12:42:04.922Z,36.65
2022-08-08T12:45:54.957Z,36.68
2022-08-08T12:48:37.980Z,37.24
2022-08-08T12:51:59.204Z,37.79
2022-08-08T12:55:09.416Z,37.17
2022-08-08T12:58:19.721Z,37.10
2022-08-08T13:01:39.120Z,37.65
2022-08-08T13:04:51.102Z,38.23
2022-08-08T13:08:03.983Z,38.11
2022-08-08T13:11:23.759Z,38.18
2022-08-08T13:14:53.455Z,37.81
2022-08-08T13:18:11.561Z,38.07
2022-08-08T13:21:17.058Z,38.12
2022-08-08T13:24:39.386Z,38.49
2022-08-08T13:27:51.937Z,38.55
2022-08-08T13:31:00.149Z,38.73
2022-08-08T13:34:11.688Z,39.30
2022-08-08T13:37:19.539Z,38.91
2022-08-08T13:40:27.306Z,38.84
2022-08-08T13:43:31.038Z,38.97
2022-08-08T13:46:34.225Z,39.35
2022-08-08T13:50:37.262Z,39.73
2022-08-08T13:53:00.086Z,39.89
2022-08-08T13:56:44.781Z,39.93
2022-08-08T14:00:21.860Z,39.18
2022-08-08T14:03:53.533Z,39.31
2022-08-08T14:06:58.925Z,39.60
2022-08-08T14:10:17.168Z,38.92
2022-08-08T14:13:30.809Z,38.35
2022-08-08T14:16:36.723Z,38.75
2022-08-08T14:19:57.463Z,38.51
2022-08-08T14:23:21.118Z,39.06
2022-08-08T14:26:44.681Z,38.63
2022-08-08T14:30:04.334Z,39.12
2022-08-08T14:33:27.883Z,38.73
2022-08-08T14:36:40.828Z,38.05
2022-08-08T14:40:06.466Z,38.36
2022-08-08T14:43:22.147Z,39.08
2022-08-08T14:46:34.070Z,39.15
2022-08-08T14:49:51.500Z,39.43
2022-08-08T14:53:06.002Z,39.68
2022-08-08T14:56:09.815Z,39.95
2022-08-08T14:59:31.308Z,40.07
2022-08-08T15:02:39.232Z,39.84
2022-08-08T15:06:00.284Z,39.87
2022-08-08T15:09:04.226Z,40.10
2022-08-08T15:12:07.661Z,40.26
2022-08-08T15:15:18.735Z,40.39
2022-08-08T15:18:37.642Z,40.61
2022-08-08T15:21:44.774Z,40.97
2022-08-08T15:24:50.068Z,40.76
2022-08-08T15:28:04.546Z,41.21
2022-08-08T15:31:25.605Z,41.13
2022-08-08T15:34:32.203Z,41.23
2022-08-08T15:37:35.424Z,41.30
2022-08-08T15:40:38.285Z,41.23
2022-08-08T15:43:41.175Z,41.13
2022-08-08T15:46:45.726Z,41.14
2022-08-08T15:49:54.058Z,41.26
2022-08-08T15:52:58.728Z,40.99
2022-08-08T15:56:01.583Z,41.63
2022-08-08T15:59:04.576Z,41.26
2022-08-08T16:02:12.853Z,41.52
2022-08-08T16:05:17.131Z,41.61
2022-08-08T16:08:22.075Z,41.62
2022-08-08T16:13:02.560Z,41.57
2022-08-08T16:14:53.735Z,42.01
2022-08-08T16:18:11.435Z,41.82
2022-08-08T16:21:26.071Z,42.10
2022-08-08T16:24:30.237Z,42.24
2022-08-08T16:27:35.350Z,42.19
2022-08-08T16:30:40.097Z,42.02
2022-08-08T16:33:58.301Z,41.92
2022-08-08T16:37:02.255Z,42.13
2022-08-08T16:40:07.197Z,42.65
2022-08-08T16:43:10.310Z,42.59
2022-08-08T16:46:38.760Z,43.37
2022-08-08T16:49:36.288Z,43.30
2022-08-08T16:54:59.768Z,43.17
2022-08-08T16:56:15.075Z,43.41
2022-08-08T16:59:18.305Z,43.14
2022-08-08T17:02:37.996Z,43.48
2022-08-08T17:05:44.996Z,43.49
2022-08-08T17:08:48.255Z,43.58
2022-08-08T17:11:55.496Z,43.94
2022-08-08T17:15:00.800Z,44.16
2022-08-08T17:18:21.143Z,44.33
2022-08-08T17:21:41.361Z,44.59
2022-08-08T17:24:53.538Z,44.83
2022-08-08T17:27:58.613Z,44.99
2022-08-08T17:31:43.586Z,45.16
2022-08-08T17:34:53.767Z,45.23
2022-08-08T17:37:51.932Z,45.18
2022-08-08T17:40:56.364Z,45.62
2022-08-08T17:44:02.307Z,45.76
2022-08-08T17:47:06.514Z,45.89
2022-08-08T17:50:12.568Z,46.01
2022-08-08T17:53:16.834Z,46.20
2022-08-08T17:56:26.254Z,46.59
2022-08-08T17:59:30.253Z,46.54
2022-08-08T18:02:38.011Z,46.63
2022-08-08T18:05:49.899Z,46.67
2022-08-08T18:08:55.325Z,46.70
2022-08-08T18:11:59.633Z,46.70
2022-08-08T18:15:03.122Z,46.85
2022-08-08T18:18:28.468Z,46.90
2022-08-08T18:22:00.198Z,47.04
2022-08-08T18:24:57.074Z,47.06
2022-08-08T18:27:59.976Z,47.29
2022-08-08T18:31:06.872Z,47.46
2022-08-08T18:34:11.378Z,47.47
2022-08-08T18:37:33.930Z,47.65
2022-08-08T18:40:37.729Z,47.62
2022-08-08T18:43:43.374Z,47.68
2022-08-08T18:46:57.129Z,47.72
2022-08-08T18:50:02.848Z,47.68
2022-08-08T18:53:06.192Z,47.75
2022-08-08T18:56:23.323Z,47.88
2022-08-08T18:59:34.575Z,47.97
2022-08-08T19:02:48.598Z,48.10
2022-08-08T19:06:00.975Z,48.24
2022-08-08T19:09:12.955Z,48.44
2022-08-08T19:12:17.057Z,48.71
2022-08-08T19:15:23.924Z,48.73
2022-08-08T19:18:32.870Z,48.79
2022-08-08T19:21:51.549Z,48.83
2022-08-08T19:26:01.007Z,48.96
2022-08-08T19:28:20.162Z,49.05
2022-08-08T19:31:23.339Z,49.17
2022-08-08T19:34:38.916Z,49.20
2022-08-08T19:37:47.755Z,49.30
2022-08-08T19:40:58.114Z,49.39
2022-08-08T19:44:12.927Z,49.37
2022-08-08T19:47:16.366Z,49.35
2022-08-08T19:50:27.308Z,49.40
2022-08-08T19:53:52.176Z,49.37
2022-08-08T19:56:57.186Z,49.57
2022-08-08T20:00:11.441Z,49.70
2022-08-08T20:04:02.414Z,49.76
2022-08-08T20:06:57.105Z,49.80
2022-08-08T20:10:01.093Z,49.81
2022-08-08T20:14:13.109Z,49.89
2022-08-08T20:16:31.073Z,49.96
2022-08-08T20:19:42.345Z,50.04
2022-08-08T20:22:56.018Z,49.97
2022-08-08T20:26:02.319Z,50.07
2022-08-08T20:29:08.434Z,50.03
2022-08-08T20:32:14.342Z,50.16
2022-08-08T20:35:22.974Z,50.11
2022-08-08T20:38:41.702Z,50.13
2022-08-08T20:41:52.285Z,50.21
2022-08-08T20:44:59.027Z,50.29
2022-08-08T20:48:05.511Z,50.28
2022-08-08T20:51:08.873Z,50.51
2022-08-08T20:54:27.399Z,50.54
2022-08-08T20:57:43.733Z,50.54
2022-08-08T21:00:51.927Z,50.79
2022-08-08T21:03:55.568Z,50.90
2022-08-08T21:07:04.981Z,51.02
2022-08-08T21:10:16.302Z,51.03
2022-08-08T21:13:23.505Z,50.86
2022-08-08T21:16:42.967Z,50.77
2022-08-08T21:19:47.327Z,50.76
2022-08-08T21:22:50.646Z,50.80
2022-08-08T21:25:54.949Z,50.93
2022-08-08T21:29:01.090Z,50.86
2022-08-08T21:32:07.854Z,50.92
2022-08-08T21:36:17.791Z,51.10
2022-08-08T21:39:06.737Z,51.07
2022-08-08T21:42:11.184Z,50.96
2022-08-08T21:45:44.878Z,51.04
2022-08-08T21:48:44.542Z,50.96
2022-08-08T21:54:27.270Z,50.99
2022-08-08T21:55:24.006Z,51.10
2022-08-08T21:58:38.072Z,51.13
2022-08-08T22:01:42.570Z,51.15
2022-08-08T22:04:45.800Z,51.04
2022-08-08T22:07:49.247Z,51.11
2022-08-08T22:10:54.038Z,51.23
2022-08-08T22:13:57.308Z,51.29
2022-08-08T22:17:01.658Z,51.31
2022-08-08T22:20:12.822Z,51.50
2022-08-08T22:23:21.694Z,51.77
2022-08-08T22:26:32.929Z,51.81
2022-08-08T22:30:01.401Z,51.94
2022-08-08T22:32:58.691Z,51.82
2022-08-08T22:36:04.697Z,51.89
2022-08-08T22:39:19.147Z,52.04
2022-08-08T22:42:24.166Z,52.00
2022-08-08T22:45:30.653Z,51.92
2022-08-08T22:48:33.584Z,51.92
2022-08-08T22:51:42.706Z,52.01
2022-08-08T22:55:04.722Z,52.35
2022-08-08T22:58:08.572Z,52.31
2022-08-08T23:02:01.799Z,52.28
2022-08-08T23:04:34.846Z,52.35
2022-08-08T23:07:49.302Z,52.33
2022-08-08T23:11:06.222Z,52.40
2022-08-08T23:14:20.723Z,52.53
2022-08-08T23:17:25.052Z,52.75
2022-08-08T23:20:33.052Z,52.82
2022-08-08T23:23:48.640Z,52.69
2022-08-08T23:26:58.759Z,52.79
2022-08-08T23:30:03.615Z,52.66
2022-08-08T23:33:07.096Z,52.68
2022-08-08T23:36:26.336Z,53.13
2022-08-08T23:39:42.179Z,53.31
2022-08-08T23:42:52.455Z,53.20
2022-08-08T23:49:04.029Z,53.46
2022-08-08T23:49:20.890Z,53.49
2022-08-08T23:52:23.932Z,53.52
2022-08-08T23:55:28.610Z,53.58
2022-08-08T23:58:38.206Z,53.63
